CheckWX is a tool to help pilots better visualize weather data.  It is not intended as a substitute for an official pre-flight weather briefing.

04:07:31 UTC

KHEQ METAR
Holyoke Airport
Holyoke, Colorado, USA
Current

18 mins ago

KHEQ 270350Z AUTO 17013KT 10SM -RA CLR 16/13 A2986 RMK AO2 LTG DSNT W
Observed
May-27 @ 03:50 UTC
Wind
  • 170° at 13 KTS
Visibility
10 SM
Flight Rules
VFR
Conditions
Light Rain
Cloud Levels
  • Clear skies
Temperature
16°C / 61°F
Dewpoint
13°C / 55°F
Humidity
83%
Altimeter
29.86" Hg
Pressure
1011.22 hPa
Previous

38 mins ago

KHEQ 270330Z AUTO 18014G29KT 10SM SCT010 SCT015 SCT025 16/13 A2985 RMK AO2 LTG DSNT NW THRU SE
Observed
May-27 @ 03:30 UTC
Wind
  • 180° at 14 KTS
  • Gusting to 29 KTS
Visibility
10 SM
Flight Rules
VFR
Cloud Levels
  • Scattered at 1,000' AGL
  • Scattered at 1,500' AGL
  • Scattered at 2,500' AGL
Temperature
16°C / 61°F
Dewpoint
13°C / 55°F
Humidity
83%
Altimeter
29.85" Hg
Pressure
1010.82 hPa
Previous

58 mins ago

KHEQ 270310Z AUTO 12021G35KT 10SM -VCTSRA SCT010 BKN015 BKN022 15/12 A2977 RMK AO2 LTG DSNT E AND SE
Observed
May-27 @ 03:10 UTC
Wind
  • 120° at 21 KTS
  • Gusting to 35 KTS
Visibility
10 SM
Flight Rules
MVFR
Conditions
Area Thunderstorm, Light Rain
Cloud Levels
  • Scattered at 1,000' AGL
  • Broken at 1,500' AGL
  • Broken at 2,200' AGL
Temperature
15°C / 59°F
Dewpoint
12°C / 54°F
Humidity
82%
Altimeter
29.77" Hg
Pressure
1008.12 hPa